sensor_id;sensor_type;location;lat;lon;timestamp;pressure;altitude;pressure_sealevel;temperature;humidity
10366;BME280;5229;41.820;23.490;2023-01-23T00:01:59;90409.13;;;8.89;68.18
10366;BME280;5229;41.820;23.490;2023-01-23T00:04:26;90394.66;;;8.88;68.41
10366;BME280;5229;41.820;23.490;2023-01-23T00:06:53;90405.00;;;8.88;68.56
10366;BME280;5229;41.820;23.490;2023-01-23T00:09:21;90406.25;;;8.90;68.65
10366;BME280;5229;41.820;23.490;2023-01-23T00:11:48;90400.81;;;8.92;68.79
10366;BME280;5229;41.820;23.490;2023-01-23T00:14:14;90409.06;;;8.94;68.58
10366;BME280;5229;41.820;23.490;2023-01-23T00:16:42;90407.50;;;8.93;69.00
10366;BME280;5229;41.820;23.490;2023-01-23T00:19:09;90401.09;;;8.90;69.03
10366;BME280;5229;41.820;23.490;2023-01-23T00:21:36;90406.81;;;8.87;68.71
10366;BME280;5229;41.820;23.490;2023-01-23T00:24:04;90411.25;;;8.87;69.21
10366;BME280;5229;41.820;23.490;2023-01-23T00:26:33;90407.88;;;8.86;69.29
10366;BME280;5229;41.820;23.490;2023-01-23T00:29:00;90406.63;;;8.84;69.76
10366;BME280;5229;41.820;23.490;2023-01-23T00:31:30;90409.50;;;8.82;69.60
10366;BME280;5229;41.820;23.490;2023-01-23T00:33:59;90409.69;;;8.86;69.74
10366;BME280;5229;41.820;23.490;2023-01-23T00:36:28;90421.59;;;8.87;69.96
10366;BME280;5229;41.820;23.490;2023-01-23T00:38:55;90418.50;;;8.85;69.85
10366;BME280;5229;41.820;23.490;2023-01-23T00:41:22;90417.75;;;8.84;69.67
10366;BME280;5229;41.820;23.490;2023-01-23T00:43:51;90416.97;;;8.84;70.26
10366;BME280;5229;41.820;23.490;2023-01-23T00:46:18;90416.97;;;8.84;70.04
10366;BME280;5229;41.820;23.490;2023-01-23T00:48:44;90413.03;;;8.86;69.90
10366;BME280;5229;41.820;23.490;2023-01-23T00:51:11;90417.94;;;8.88;70.48
10366;BME280;5229;41.820;23.490;2023-01-23T00:53:38;90428.28;;;8.88;70.38
10366;BME280;5229;41.820;23.490;2023-01-23T00:56:06;90424.16;;;8.87;70.34
10366;BME280;5229;41.820;23.490;2023-01-23T00:58:33;90418.50;;;8.85;70.42
10366;BME280;5229;41.820;23.490;2023-01-23T01:01:01;90425.69;;;8.88;70.68
10366;BME280;5229;41.820;23.490;2023-01-23T01:03:28;90426.75;;;8.87;70.02
10366;BME280;5229;41.820;23.490;2023-01-23T01:05:55;90426.47;;;8.88;70.92
10366;BME280;5229;41.820;23.490;2023-01-23T01:08:22;90431.84;;;8.92;70.37
10366;BME280;5229;41.820;23.490;2023-01-23T01:10:49;90427.16;;;8.94;70.76
10366;BME280;5229;41.820;23.490;2023-01-23T01:13:16;90427.72;;;8.91;70.72
10366;BME280;5229;41.820;23.490;2023-01-23T01:15:47;90424.56;;;8.94;70.45
10366;BME280;5229;41.820;23.490;2023-01-23T01:18:15;90424.28;;;8.95;70.64
10366;BME280;5229;41.820;23.490;2023-01-23T01:20:43;90419.88;;;8.96;70.75
10366;BME280;5229;41.820;23.490;2023-01-23T01:23:10;90421.91;;;8.99;70.91
10366;BME280;5229;41.820;23.490;2023-01-23T01:25:37;90417.69;;;9.03;70.90
10366;BME280;5229;41.820;23.490;2023-01-23T01:28:05;90415.31;;;9.07;70.40
10366;BME280;5229;41.820;23.490;2023-01-23T01:30:32;90413.97;;;9.09;70.30
10366;BME280;5229;41.820;23.490;2023-01-23T01:32:59;90418.59;;;9.12;70.47
10366;BME280;5229;41.820;23.490;2023-01-23T01:35:27;90410.81;;;9.12;70.18
10366;BME280;5229;41.820;23.490;2023-01-23T01:37:54;90409.47;;;9.15;70.49
10366;BME280;5229;41.820;23.490;2023-01-23T01:40:24;90416.69;;;9.18;70.57
10366;BME280;5229;41.820;23.490;2023-01-23T01:42:54;90419.72;;;9.20;70.61
10366;BME280;5229;41.820;23.490;2023-01-23T01:46:04;90420.03;;;9.18;70.31
10366;BME280;5229;41.820;23.490;2023-01-23T01:48:33;90422.03;;;9.21;70.43
10366;BME280;5229;41.820;23.490;2023-01-23T01:51:05;90413.72;;;9.24;70.16
10366;BME280;5229;41.820;23.490;2023-01-23T01:53:33;90417.25;;;9.28;70.04
10366;BME280;5229;41.820;23.490;2023-01-23T01:56:02;90407.69;;;9.29;70.20
10366;BME280;5229;41.820;23.490;2023-01-23T01:58:29;90417.25;;;9.28;70.21
10366;BME280;5229;41.820;23.490;2023-01-23T02:00:56;90414.22;;;9.26;70.31
10366;BME280;5229;41.820;23.490;2023-01-23T02:03:23;90414.97;;;9.27;70.16
10366;BME280;5229;41.820;23.490;2023-01-23T02:05:50;90422.44;;;9.28;70.36
10366;BME280;5229;41.820;23.490;2023-01-23T02:08:22;90419.28;;;9.31;69.86
10366;BME280;5229;41.820;23.490;2023-01-23T02:10:50;90427.81;;;9.32;70.32
10366;BME280;5229;41.820;23.490;2023-01-23T02:13:23;90417.19;;;9.33;70.10
10366;BME280;5229;41.820;23.490;2023-01-23T02:15:55;90413.53;;;9.34;69.99
10366;BME280;5229;41.820;23.490;2023-01-23T02:18:23;90409.91;;;9.35;70.37
10366;BME280;5229;41.820;23.490;2023-01-23T02:20:52;90414.03;;;9.36;69.90
10366;BME280;5229;41.820;23.490;2023-01-23T02:23:27;90411.72;;;9.35;69.86
10366;BME280;5229;41.820;23.490;2023-01-23T02:26:02;90415.66;;;9.32;69.46
10366;BME280;5229;41.820;23.490;2023-01-23T02:28:39;90410.78;;;9.31;70.01
10366;BME280;5229;41.820;23.490;2023-01-23T02:31:07;90412.09;;;9.28;69.94
10366;BME280;5229;41.820;23.490;2023-01-23T02:33:44;90415.75;;;9.27;69.74
10366;BME280;5229;41.820;23.490;2023-01-23T02:36:12;90417.25;;;9.28;69.93
10366;BME280;5229;41.820;23.490;2023-01-23T02:38:43;90406.16;;;9.28;69.94
10366;BME280;5229;41.820;23.490;2023-01-23T02:41:12;90412.88;;;9.29;69.94
10366;BME280;5229;41.820;23.490;2023-01-23T02:43:41;90409.50;;;9.28;69.83
10366;BME280;5229;41.820;23.490;2023-01-23T02:46:10;90416.22;;;9.29;70.02
10366;BME280;5229;41.820;23.490;2023-01-23T02:48:38;90419.56;;;9.30;69.96
10366;BME280;5229;41.820;23.490;2023-01-23T02:51:05;90420.91;;;9.27;69.90
10366;BME280;5229;41.820;23.490;2023-01-23T02:53:32;90410.56;;;9.27;70.08
10366;BME280;5229;41.820;23.490;2023-01-23T02:55:59;90401.47;;;9.30;70.04
10366;BME280;5229;41.820;23.490;2023-01-23T02:58:27;90400.16;;;9.32;69.70
10366;BME280;5229;41.820;23.490;2023-01-23T03:01:11;90406.63;;;9.30;69.97
10366;BME280;5229;41.820;23.490;2023-01-23T03:03:38;90402.03;;;9.27;69.77
10366;BME280;5229;41.820;23.490;2023-01-23T03:06:06;90406.16;;;9.28;70.45
10366;BME280;5229;41.820;23.490;2023-01-23T03:08:33;90400.22;;;9.27;70.05
10366;BME280;5229;41.820;23.490;2023-01-23T03:11:02;90411.91;;;9.25;70.08
10366;BME280;5229;41.820;23.490;2023-01-23T03:13:30;90410.09;;;9.25;70.29
10366;BME280;5229;41.820;23.490;2023-01-23T03:15:57;90410.84;;;9.26;70.03
10366;BME280;5229;41.820;23.490;2023-01-23T03:18:24;90410.38;;;9.24;70.04
10366;BME280;5229;41.820;23.490;2023-01-23T03:20:52;90414.50;;;9.25;70.12
10366;BME280;5229;41.820;23.490;2023-01-23T03:23:18;90416.31;;;9.24;69.85
10366;BME280;5229;41.820;23.490;2023-01-23T03:25:45;90420.22;;;9.22;70.08
10366;BME280;5229;41.820;23.490;2023-01-23T03:28:13;90419.94;;;9.23;70.13
10366;BME280;5229;41.820;23.490;2023-01-23T03:30:55;90414.22;;;9.26;70.35
10366;BME280;5229;41.820;23.490;2023-01-23T03:33:22;90406.44;;;9.26;70.25
10366;BME280;5229;41.820;23.490;2023-01-23T03:35:49;90405.59;;;9.31;70.43
10366;BME280;5229;41.820;23.490;2023-01-23T03:38:16;90403.47;;;9.33;70.17
10366;BME280;5229;41.820;23.490;2023-01-23T03:40:44;90402.91;;;9.36;70.25
10366;BME280;5229;41.820;23.490;2023-01-23T03:43:30;90408.88;;;9.36;70.07
10366;BME280;5229;41.820;23.490;2023-01-23T03:45:58;90404.72;;;9.35;69.95
10366;BME280;5229;41.820;23.490;2023-01-23T03:48:25;90407.81;;;9.37;69.85
10366;BME280;5229;41.820;23.490;2023-01-23T03:50:52;90407.53;;;9.39;69.65
10366;BME280;5229;41.820;23.490;2023-01-23T03:53:19;90413.47;;;9.39;69.59
10366;BME280;5229;41.820;23.490;2023-01-23T03:55:46;90419.41;;;9.40;69.09
10366;BME280;5229;41.820;23.490;2023-01-23T03:58:13;90426.41;;;9.39;69.59
10366;BME280;5229;41.820;23.490;2023-01-23T04:00:40;90418.16;;;9.37;69.14
10366;BME280;5229;41.820;23.490;2023-01-23T04:03:08;90415.06;;;9.35;69.38
10366;BME280;5229;41.820;23.490;2023-01-23T04:05:35;90415.06;;;9.35;69.36
10366;BME280;5229;41.820;23.490;2023-01-23T04:08:02;90415.34;;;9.34;68.85
10366;BME280;5229;41.820;23.490;2023-01-23T04:10:30;90421.59;;;9.33;68.92
10366;BME280;5229;41.820;23.490;2023-01-23T04:12:56;90429.16;;;9.29;68.90
10366;BME280;5229;41.820;23.490;2023-01-23T04:15:23;90422.94;;;9.30;68.75
10366;BME280;5229;41.820;23.490;2023-01-23T04:17:50;90425.31;;;9.27;68.85
10366;BME280;5229;41.820;23.490;2023-01-23T04:20:18;90426.66;;;9.24;68.98
10366;BME280;5229;41.820;23.490;2023-01-23T04:22:45;90427.81;;;9.18;68.81
10366;BME280;5229;41.820;23.490;2023-01-23T04:25:12;90435.06;;;9.16;68.94
10366;BME280;5229;41.820;23.490;2023-01-23T04:27:39;90433.53;;;9.15;69.01
10366;BME280;5229;41.820;23.490;2023-01-23T04:30:06;90424.72;;;9.16;68.98
10366;BME280;5229;41.820;23.490;2023-01-23T04:32:34;90422.63;;;9.18;68.84
10366;BME280;5229;41.820;23.490;2023-01-23T04:35:00;90419.00;;;9.19;68.62
10366;BME280;5229;41.820;23.490;2023-01-23T04:37:28;90417.47;;;9.18;69.01
10366;BME280;5229;41.820;23.490;2023-01-23T04:39:55;90422.63;;;9.18;68.88
10366;BME280;5229;41.820;23.490;2023-01-23T04:42:22;90415.34;;;9.20;68.96
10366;BME280;5229;41.820;23.490;2023-01-23T04:44:49;90419.00;;;9.19;69.16
10366;BME280;5229;41.820;23.490;2023-01-23T04:47:16;90427.72;;;9.23;68.99
10366;BME280;5229;41.820;23.490;2023-01-23T04:49:42;90417.09;;;9.25;68.40
10366;BME280;5229;41.820;23.490;2023-01-23T04:52:09;90414.22;;;9.26;69.04
10366;BME280;5229;41.820;23.490;2023-01-23T04:54:37;90424.75;;;9.30;68.38
10366;BME280;5229;41.820;23.490;2023-01-23T04:57:04;90436.38;;;9.32;68.88
10366;BME280;5229;41.820;23.490;2023-01-23T04:59:31;90439.41;;;9.34;68.79
10366;BME280;5229;41.820;23.490;2023-01-23T05:01:58;90443.53;;;9.35;68.81
10366;BME280;5229;41.820;23.490;2023-01-23T05:04:26;90434.19;;;9.39;68.76
10366;BME280;5229;41.820;23.490;2023-01-23T05:06:53;90426.88;;;9.41;68.71
10366;BME280;5229;41.820;23.490;2023-01-23T05:09:20;90440.31;;;9.43;69.05
10366;BME280;5229;41.820;23.490;2023-01-23T05:11:48;90437.72;;;9.43;68.55
10366;BME280;5229;41.820;23.490;2023-01-23T05:14:15;90440.31;;;9.43;68.94
10366;BME280;5229;41.820;23.490;2023-01-23T05:16:42;90439.25;;;9.44;68.58
10366;BME280;5229;41.820;23.490;2023-01-23T05:19:09;90448.53;;;9.45;68.54
10366;BME280;5229;41.820;23.490;2023-01-23T05:21:36;90443.94;;;9.42;68.69
10366;BME280;5229;41.820;23.490;2023-01-23T05:24:03;90448.94;;;9.39;68.64
10366;BME280;5229;41.820;23.490;2023-01-23T05:26:30;90451.59;;;9.34;68.69
10366;BME280;5229;41.820;23.490;2023-01-23T05:28:58;90452.47;;;9.29;68.71
10366;BME280;5229;41.820;23.490;2023-01-23T05:31:25;90448.91;;;9.25;69.29
10366;BME280;5229;41.820;23.490;2023-01-23T05:33:52;90456.16;;;9.23;68.80
10366;BME280;5229;41.820;23.490;2023-01-23T05:36:19;90453.38;;;9.20;68.66
10366;BME280;5229;41.820;23.490;2023-01-23T05:38:46;90460.66;;;9.18;68.48
10366;BME280;5229;41.820;23.490;2023-01-23T05:41:12;90464.59;;;9.15;68.50
10366;BME280;5229;41.820;23.490;2023-01-23T05:43:39;90468.78;;;9.11;68.78
10366;BME280;5229;41.820;23.490;2023-01-23T05:46:07;90473.97;;;9.11;68.55
10366;BME280;5229;41.820;23.490;2023-01-23T05:48:34;90468.28;;;9.09;68.44
10366;BME280;5229;41.820;23.490;2023-01-23T05:51:01;90473.97;;;9.11;68.56
10366;BME280;5229;41.820;23.490;2023-01-23T05:53:28;90462.84;;;9.11;68.90
10366;BME280;5229;41.820;23.490;2023-01-23T05:55:55;90473.97;;;9.11;68.53
10366;BME280;5229;41.820;23.490;2023-01-23T05:58:22;90469.53;;;9.12;68.34
10366;BME280;5229;41.820;23.490;2023-01-23T06:00:49;90477.03;;;9.13;68.40
10366;BME280;5229;41.820;23.490;2023-01-23T06:03:17;90478.56;;;9.14;68.71
10366;BME280;5229;41.820;23.490;2023-01-23T06:05:44;90487.38;;;9.13;68.26
10366;BME280;5229;41.820;23.490;2023-01-23T06:08:11;90492.53;;;9.13;68.95
10366;BME280;5229;41.820;23.490;2023-01-23T06:10:37;90496.09;;;9.17;68.82
10366;BME280;5229;41.820;23.490;2023-01-23T06:13:04;90496.88;;;9.18;68.30
10366;BME280;5229;41.820;23.490;2023-01-23T06:15:31;90491.88;;;9.21;68.77
10366;BME280;5229;41.820;23.490;2023-01-23T06:17:58;90496.03;;;9.22;68.72
10366;BME280;5229;41.820;23.490;2023-01-23T06:20:27;90494.97;;;9.23;68.96
10366;BME280;5229;41.820;23.490;2023-01-23T06:22:53;90496.22;;;9.26;68.98
10366;BME280;5229;41.820;23.490;2023-01-23T06:25:20;90497.47;;;9.28;68.81
10366;BME280;5229;41.820;23.490;2023-01-23T06:27:47;90491.28;;;9.29;68.86
10366;BME280;5229;41.820;23.490;2023-01-23T06:30:14;90483.97;;;9.31;69.22
10366;BME280;5229;41.820;23.490;2023-01-23T06:32:41;90486.28;;;9.33;69.43
10366;BME280;5229;41.820;23.490;2023-01-23T06:35:08;90489.09;;;9.36;69.45
10366;BME280;5229;41.820;23.490;2023-01-23T06:37:36;90504.06;;;9.39;69.30
10366;BME280;5229;41.820;23.490;2023-01-23T06:40:03;90503.97;;;9.44;69.46
10366;BME280;5229;41.820;23.490;2023-01-23T06:42:30;90506.44;;;9.49;69.34
10366;BME280;5229;41.820;23.490;2023-01-23T06:44:57;90513.66;;;9.52;69.38
10366;BME280;5229;41.820;23.490;2023-01-23T06:47:24;90515.69;;;9.55;69.57
10366;BME280;5229;41.820;23.490;2023-01-23T06:49:51;90526.03;;;9.55;69.39
10366;BME280;5229;41.820;23.490;2023-01-23T06:52:18;90519.03;;;9.56;69.49
10366;BME280;5229;41.820;23.490;2023-01-23T06:54:46;90523.66;;;9.59;69.62
10366;BME280;5229;41.820;23.490;2023-01-23T06:57:13;90529.31;;;9.61;69.66
10366;BME280;5229;41.820;23.490;2023-01-23T06:59:40;90539.94;;;9.59;69.89
10366;BME280;5229;41.820;23.490;2023-01-23T07:02:07;90541.00;;;9.58;69.48
10366;BME280;5229;41.820;23.490;2023-01-23T07:04:35;90538.41;;;9.58;69.80
10366;BME280;5229;41.820;23.490;2023-01-23T07:07:01;90544.38;;;9.59;69.64
10366;BME280;5229;41.820;23.490;2023-01-23T07:09:28;90547.16;;;9.62;69.95
10366;BME280;5229;41.820;23.490;2023-01-23T07:11:57;90539.09;;;9.64;69.99
10366;BME280;5229;41.820;23.490;2023-01-23T07:14:23;90534.41;;;9.66;70.13
10366;BME280;5229;41.820;23.490;2023-01-23T07:16:52;90540.06;;;9.68;69.59
10366;BME280;5229;41.820;23.490;2023-01-23T07:19:19;90546.22;;;9.72;70.23
10366;BME280;5229;41.820;23.490;2023-01-23T07:21:46;90550.53;;;9.76;69.67
10366;BME280;5229;41.820;23.490;2023-01-23T07:24:13;90551.03;;;9.78;69.54
10366;BME280;5229;41.820;23.490;2023-01-23T07:26:40;90545.25;;;9.81;69.56
10366;BME280;5229;41.820;23.490;2023-01-23T07:29:08;90545.75;;;9.83;70.12
10366;BME280;5229;41.820;23.490;2023-01-23T07:31:35;90547.28;;;9.84;69.55
10366;BME280;5229;41.820;23.490;2023-01-23T07:34:02;90552.97;;;9.86;69.42
10366;BME280;5229;41.820;23.490;2023-01-23T07:36:29;90556.78;;;9.89;69.60
10366;BME280;5229;41.820;23.490;2023-01-23T07:38:56;90547.97;;;9.90;70.01
10366;BME280;5229;41.820;23.490;2023-01-23T07:41:23;90551.81;;;9.92;69.90
10366;BME280;5229;41.820;23.490;2023-01-23T07:43:50;90551.34;;;9.90;69.55
10366;BME280;5229;41.820;23.490;2023-01-23T07:46:18;90560.63;;;9.91;69.93
10366;BME280;5229;41.820;23.490;2023-01-23T07:48:45;90556.03;;;9.88;69.91
10366;BME280;5229;41.820;23.490;2023-01-23T07:51:12;90556.03;;;9.88;70.07
10366;BME280;5229;41.820;23.490;2023-01-23T07:53:39;90553.91;;;9.90;69.56
10366;BME280;5229;41.820;23.490;2023-01-23T07:56:06;90564.47;;;9.94;69.47
10366;BME280;5229;41.820;23.490;2023-01-23T07:58:33;90560.06;;;9.94;69.82
10366;BME280;5229;41.820;23.490;2023-01-23T08:01:06;90555.38;;;9.96;69.85
10366;BME280;5229;41.820;23.490;2023-01-23T08:03:35;90556.91;;;9.97;69.42
10366;BME280;5229;41.820;23.490;2023-01-23T08:06:01;90567.75;;;9.99;70.36
10366;BME280;5229;41.820;23.490;2023-01-23T08:08:28;90576.00;;;10.01;69.47
10366;BME280;5229;41.820;23.490;2023-01-23T08:10:55;90574.66;;;10.04;69.62
10366;BME280;5229;41.820;23.490;2023-01-23T08:13:22;90579.84;;;10.04;70.17
10366;BME280;5229;41.820;23.490;2023-01-23T08:15:49;90576.97;;;10.05;69.86
10366;BME280;5229;41.820;23.490;2023-01-23T08:18:17;90575.19;;;10.06;70.21
10366;BME280;5229;41.820;23.490;2023-01-23T08:20:51;90580.09;;;10.07;69.29
10366;BME280;5229;41.820;23.490;2023-01-23T08:23:18;90579.22;;;10.12;69.45
10366;BME280;5229;41.820;23.490;2023-01-23T08:25:45;90587.97;;;10.16;70.02
10366;BME280;5229;41.820;23.490;2023-01-23T08:28:12;90586.63;;;10.18;69.97
10366;BME280;5229;41.820;23.490;2023-01-23T08:30:38;90584.50;;;10.20;70.01
10366;BME280;5229;41.820;23.490;2023-01-23T08:33:05;90584.22;;;10.22;70.02
10366;BME280;5229;41.820;23.490;2023-01-23T08:35:32;90589.69;;;10.20;69.78
10366;BME280;5229;41.820;23.490;2023-01-23T08:38:00;90584.72;;;10.24;69.94
10366;BME280;5229;41.820;23.490;2023-01-23T08:40:28;90594.28;;;10.23;69.47
10366;BME280;5229;41.820;23.490;2023-01-23T08:42:55;90595.06;;;10.24;70.03
10366;BME280;5229;41.820;23.490;2023-01-23T08:45:21;90598.44;;;10.24;69.91
10366;BME280;5229;41.820;23.490;2023-01-23T08:47:49;90601.22;;;10.28;69.59
10366;BME280;5229;41.820;23.490;2023-01-23T08:50:16;90601.44;;;10.31;69.28
10366;BME280;5229;41.820;23.490;2023-01-23T08:52:43;90593.84;;;10.35;69.20
10366;BME280;5229;41.820;23.490;2023-01-23T08:55:11;90597.38;;;10.39;69.55
10366;BME280;5229;41.820;23.490;2023-01-23T08:57:38;90595.00;;;10.42;69.60
10366;BME280;5229;41.820;23.490;2023-01-23T09:00:06;90596.81;;;10.42;69.17
10366;BME280;5229;41.820;23.490;2023-01-23T09:02:35;90600.47;;;10.41;69.04
10366;BME280;5229;41.820;23.490;2023-01-23T09:05:01;90602.56;;;10.39;69.09
10366;BME280;5229;41.820;23.490;2023-01-23T09:07:29;90599.31;;;10.33;69.11
10366;BME280;5229;41.820;23.490;2023-01-23T09:09:56;90598.91;;;10.26;68.68
10366;BME280;5229;41.820;23.490;2023-01-23T09:12:24;90603.13;;;10.22;68.17
10366;BME280;5229;41.820;23.490;2023-01-23T09:14:50;90603.69;;;10.19;68.10
10366;BME280;5229;41.820;23.490;2023-01-23T09:17:17;90596.41;;;10.21;68.65
10366;BME280;5229;41.820;23.490;2023-01-23T09:19:44;90597.94;;;10.22;68.63
10366;BME280;5229;41.820;23.490;2023-01-23T09:22:11;90594.78;;;10.25;68.49
10366;BME280;5229;41.820;23.490;2023-01-23T09:24:37;90592.38;;;10.29;68.51
10366;BME280;5229;41.820;23.490;2023-01-23T09:27:04;90601.44;;;10.31;68.20
10366;BME280;5229;41.820;23.490;2023-01-23T09:29:33;90591.53;;;10.33;67.56
10366;BME280;5229;41.820;23.490;2023-01-23T09:32:00;90600.56;;;10.36;67.86
10366;BME280;5229;41.820;23.490;2023-01-23T09:34:27;90593.72;;;10.40;68.34
10366;BME280;5229;41.820;23.490;2023-01-23T09:36:55;90593.44;;;10.41;67.45
10366;BME280;5229;41.820;23.490;2023-01-23T09:39:22;90592.41;;;10.42;67.97
10366;BME280;5229;41.820;23.490;2023-01-23T09:41:48;90588.47;;;10.45;67.77
10366;BME280;5229;41.820;23.490;2023-01-23T09:44:19;90578.56;;;10.47;67.24
10366;BME280;5229;41.820;23.490;2023-01-23T09:46:52;90592.03;;;10.49;68.11
10366;BME280;5229;41.820;23.490;2023-01-23T09:49:25;90585.03;;;10.49;67.47
10366;BME280;5229;41.820;23.490;2023-01-23T09:51:59;90585.50;;;10.51;68.06
10366;BME280;5229;41.820;23.490;2023-01-23T09:54:36;90594.03;;;10.52;67.79
10366;BME280;5229;41.820;23.490;2023-01-23T09:57:12;90586.44;;;10.55;67.19
10366;BME280;5229;41.820;23.490;2023-01-23T09:59:44;90585.41;;;10.56;67.51
10366;BME280;5229;41.820;23.490;2023-01-23T10:02:16;90589.53;;;10.57;67.09
10366;BME280;5229;41.820;23.490;2023-01-23T10:04:45;90586.44;;;10.55;67.65
10366;BME280;5229;41.820;23.490;2023-01-23T10:07:19;90585.69;;;10.55;67.68
10366;BME280;5229;41.820;23.490;2023-01-23T10:10:06;90574.09;;;10.52;66.76
10366;BME280;5229;41.820;23.490;2023-01-23T10:12:40;90581.09;;;10.52;66.47
10366;BME280;5229;41.820;23.490;2023-01-23T10:15:18;90576.28;;;10.45;66.34
10366;BME280;5229;41.820;23.490;2023-01-23T10:17:54;90566.50;;;10.42;67.17
10366;BME280;5229;41.820;23.490;2023-01-23T10:20:49;90564.47;;;10.39;66.71
10366;BME280;5229;41.820;23.490;2023-01-23T10:23:43;90556.47;;;10.36;67.29
10366;BME280;5229;41.820;23.490;2023-01-23T10:26:17;90560.34;;;10.38;66.92
10366;BME280;5229;41.820;23.490;2023-01-23T10:28:45;90560.13;;;10.35;67.86
10366;BME280;5229;41.820;23.490;2023-01-23T10:31:22;90558.63;;;10.34;67.19
10366;BME280;5229;41.820;23.490;2023-01-23T10:33:56;90550.91;;;10.29;67.90
10366;BME280;5229;41.820;23.490;2023-01-23T10:36:29;90551.19;;;10.27;67.72
10366;BME280;5229;41.820;23.490;2023-01-23T10:38:59;90551.78;;;10.24;67.60
10366;BME280;5229;41.820;23.490;2023-01-23T10:41:28;90552.84;;;10.23;67.87
10366;BME280;5229;41.820;23.490;2023-01-23T10:43:55;90554.97;;;10.21;68.02
10366;BME280;5229;41.820;23.490;2023-01-23T10:46:27;90551.31;;;10.22;68.17
10366;BME280;5229;41.820;23.490;2023-01-23T10:48:59;90564.16;;;10.27;68.14
10366;BME280;5229;41.820;23.490;2023-01-23T10:51:43;90553.72;;;10.19;68.37
10366;BME280;5229;41.820;23.490;2023-01-23T10:54:14;90541.78;;;10.18;68.67
10366;BME280;5229;41.820;23.490;2023-01-23T10:56:53;90540.56;;;10.15;68.64
10366;BME280;5229;41.820;23.490;2023-01-23T10:59:26;90538.16;;;10.19;69.13
10366;BME280;5229;41.820;23.490;2023-01-23T11:01:59;90544.50;;;10.26;69.02
10366;BME280;5229;41.820;23.490;2023-01-23T11:04:30;90544.41;;;10.31;69.08
10366;BME280;5229;41.820;23.490;2023-01-23T11:07:03;90551.13;;;10.32;69.22
10366;BME280;5229;41.820;23.490;2023-01-23T11:09:31;90539.97;;;10.32;69.31
10366;BME280;5229;41.820;23.490;2023-01-23T11:11:59;90555.81;;;10.30;69.40
10366;BME280;5229;41.820;23.490;2023-01-23T11:14:26;90537.66;;;10.30;69.18
10366;BME280;5229;41.820;23.490;2023-01-23T11:17:01;90545.72;;;10.29;69.06
10366;BME280;5229;41.820;23.490;2023-01-23T11:19:31;90543.41;;;10.27;68.59
10366;BME280;5229;41.820;23.490;2023-01-23T11:22:00;90548.44;;;10.24;68.67
10366;BME280;5229;41.820;23.490;2023-01-23T11:24:32;90542.47;;;10.23;68.64
10366;BME280;5229;41.820;23.490;2023-01-23T11:27:01;90538.25;;;10.27;69.38
10366;BME280;5229;41.820;23.490;2023-01-23T11:29:39;90535.06;;;10.30;68.65
10366;BME280;5229;41.820;23.490;2023-01-23T11:32:11;90528.63;;;10.41;68.95
10366;BME280;5229;41.820;23.490;2023-01-23T11:34:49;90524.44;;;10.45;68.64
10366;BME280;5229;41.820;23.490;2023-01-23T11:37:20;90528.94;;;10.53;68.79
10366;BME280;5229;41.820;23.490;2023-01-23T11:39:50;90513.25;;;10.58;68.90
10366;BME280;5229;41.820;23.490;2023-01-23T11:42:19;90516.81;;;10.62;68.79
10366;BME280;5229;41.820;23.490;2023-01-23T11:44:46;90523.25;;;10.65;67.72
10366;BME280;5229;41.820;23.490;2023-01-23T11:50:34;90531.22;;;10.68;67.77
10366;BME280;5229;41.820;23.490;2023-01-23T11:53:12;90529.00;;;10.75;68.51
10366;BME280;5229;41.820;23.490;2023-01-23T11:56:20;90529.19;;;10.79;68.33
10366;BME280;5229;41.820;23.490;2023-01-23T11:59:11;90528.41;;;10.78;67.17
10366;BME280;5229;41.820;23.490;2023-01-23T12:01:52;90523.03;;;10.75;67.16
10366;BME280;5229;41.820;23.490;2023-01-23T12:04:58;90526.69;;;10.74;67.02
10366;BME280;5229;41.820;23.490;2023-01-23T12:07:36;90521.88;;;10.81;67.68
10366;BME280;5229;41.820;23.490;2023-01-23T12:10:17;90526.91;;;10.77;67.17
10366;BME280;5229;41.820;23.490;2023-01-23T12:13:10;90526.41;;;10.75;67.51
10366;BME280;5229;41.820;23.490;2023-01-23T12:15:43;90533.97;;;10.85;67.22
10366;BME280;5229;41.820;23.490;2023-01-23T12:18:25;90534.16;;;10.89;67.36
10366;BME280;5229;41.820;23.490;2023-01-23T12:21:00;90531.25;;;10.90;66.53
10366;BME280;5229;41.820;23.490;2023-01-23T12:23:40;90529.25;;;10.87;66.54
10366;BME280;5229;41.820;23.490;2023-01-23T12:26:12;90533.97;;;10.85;66.58
10366;BME280;5229;41.820;23.490;2023-01-23T12:28:59;90538.97;;;10.82;66.95
10366;BME280;5229;41.820;23.490;2023-01-23T12:31:43;90539.66;;;10.74;66.13
10366;BME280;5229;41.820;23.490;2023-01-23T12:34:33;90542.47;;;10.64;66.82
10366;BME280;5229;41.820;23.490;2023-01-23T12:37:11;90529.41;;;10.55;66.16
10366;BME280;5229;41.820;23.490;2023-01-23T12:40:01;90537.28;;;10.50;67.11
10366;BME280;5229;41.820;23.490;2023-01-23T12:42:36;90532.88;;;10.51;66.59
10366;BME280;5229;41.820;23.490;2023-01-23T12:45:14;90535.56;;;10.46;67.48
10366;BME280;5229;41.820;23.490;2023-01-23T12:47:49;90535.94;;;10.39;66.50
10366;BME280;5229;41.820;23.490;2023-01-23T12:50:20;90531.91;;;10.33;66.72
10366;BME280;5229;41.820;23.490;2023-01-23T12:52:50;90542.38;;;10.28;66.89
10366;BME280;5229;41.820;23.490;2023-01-23T12:55:21;90544.03;;;10.24;66.94
10366;BME280;5229;41.820;23.490;2023-01-23T12:57:51;90535.75;;;10.22;67.83
10366;BME280;5229;41.820;23.490;2023-01-23T13:00:35;90542.47;;;10.23;67.46
10366;BME280;5229;41.820;23.490;2023-01-23T13:03:16;90540.09;;;10.27;67.69
10366;BME280;5229;41.820;23.490;2023-01-23T13:05:55;90536.91;;;10.30;67.53
10366;BME280;5229;41.820;23.490;2023-01-23T13:08:30;90536.03;;;10.34;67.51
10366;BME280;5229;41.820;23.490;2023-01-23T13:11:04;90539.22;;;10.31;67.58
10366;BME280;5229;41.820;23.490;2023-01-23T13:14:15;90541.44;;;10.24;67.49
10366;BME280;5229;41.820;23.490;2023-01-23T13:16:45;90548.91;;;10.26;67.86
10366;BME280;5229;41.820;23.490;2023-01-23T13:19:22;90546.69;;;10.19;68.17
10366;BME280;5229;41.820;23.490;2023-01-23T13:22:13;90536.31;;;10.19;67.70
10366;BME280;5229;41.820;23.490;2023-01-23T13:24:45;90541.50;;;10.19;67.76
10366;BME280;5229;41.820;23.490;2023-01-23T13:27:43;90543.13;;;10.15;67.90